createdAt,value
2023-04-13T00:00:15.250Z,19.50
2023-04-13T00:34:06.121Z,17.30
2023-04-13T00:37:38.782Z,20.00
2023-04-13T01:01:40.110Z,20.80
2023-04-13T01:05:21.928Z,21.10
2023-04-13T01:36:55.849Z,22.20
2023-04-13T01:40:37.348Z,25.60
2023-04-13T01:44:09.468Z,20.50
2023-04-13T01:47:42.294Z,19.30
2023-04-13T01:51:14.778Z,21.50
2023-04-13T02:21:05.016Z,22.70
2023-04-13T02:24:38.275Z,24.50
2023-04-13T02:45:10.729Z,26.10
2023-04-13T02:48:44.659Z,23.60
2023-04-13T02:52:23.392Z,23.00
2023-04-13T03:12:05.622Z,23.70
2023-04-13T03:15:35.819Z,24.20
2023-04-13T03:38:15.447Z,27.30
2023-04-13T03:42:03.725Z,26.50
2023-04-13T03:45:32.416Z,25.80
2023-04-13T04:05:08.931Z,27.20
2023-04-13T04:08:38.216Z,29.30
2023-04-13T05:01:26.104Z,27.10
2023-04-13T05:04:55.183Z,27.70
2023-04-13T05:20:06.922Z,27.90
2023-04-13T05:23:34.493Z,26.80
2023-04-13T05:27:09.978Z,26.20
2023-04-13T05:30:40.894Z,24.40
2023-04-13T05:34:14.405Z,25.70
2023-04-13T05:52:08.103Z,28.30
2023-04-13T05:55:54.152Z,28.00
2023-04-13T06:11:11.604Z,29.30
2023-04-13T06:14:44.516Z,25.90
2023-04-13T06:18:18.381Z,24.50
2023-04-13T06:21:48.163Z,31.70
2023-04-13T06:25:24.928Z,29.60
2023-04-13T06:28:59.498Z,26.90
2023-04-13T06:36:48.781Z,29.90
2023-04-13T06:52:37.525Z,30.70
2023-04-13T06:56:19.929Z,28.90
2023-04-13T07:00:12.518Z,31.60
2023-04-13T07:07:21.837Z,26.60
2023-04-13T07:18:05.492Z,31.40
2023-04-13T07:21:33.256Z,36.20
2023-04-13T07:25:21.254Z,34.80
2023-04-13T07:53:40.088Z,79.10
2023-04-13T07:57:24.178Z,30.60
2023-04-13T08:00:56.735Z,28.50
2023-04-13T08:16:47.560Z,24.40
2023-04-13T08:20:26.783Z,30.40
2023-04-13T08:24:14.273Z,25.00
2023-04-13T08:44:20.649Z,24.30
2023-04-13T08:47:56.888Z,27.00
2023-04-13T08:51:28.280Z,24.40
2023-04-13T08:54:59.392Z,23.40
2023-04-13T08:58:35.721Z,24.10
2023-04-13T09:27:54.010Z,23.10
2023-04-13T09:31:24.430Z,24.20
2023-04-13T09:38:41.569Z,25.60
2023-04-13T09:50:47.154Z,25.10
2023-04-13T10:01:57.294Z,20.30
2023-04-13T10:05:29.245Z,22.30
2023-04-13T10:24:38.400Z,25.30
2023-04-13T10:28:15.684Z,18.00
2023-04-13T10:35:53.655Z,20.40
2023-04-13T10:39:24.793Z,20.60
2023-04-13T10:43:02.160Z,16.80
2023-04-13T10:46:32.105Z,22.80
2023-04-13T11:11:55.852Z,12.50
2023-04-13T11:38:13.446Z,11.90
2023-04-13T11:41:48.884Z,10.70
2023-04-13T11:44:38.567Z,10.50
2023-04-13T11:48:09.769Z,11.70
2023-04-13T11:51:57.372Z,14.60
2023-04-13T11:55:27.939Z,15.10
2023-04-13T11:59:04.940Z,12.30
2023-04-13T12:03:00.309Z,11.20
2023-04-13T12:06:34.037Z,10.90
2023-04-13T12:48:53.095Z,15.60
2023-04-13T12:53:11.110Z,12.60
2023-04-13T12:56:51.405Z,10.90
2023-04-13T13:07:32.770Z,12.20
2023-04-13T13:11:07.664Z,14.90
2023-04-13T13:14:38.919Z,12.20
2023-04-13T13:18:09.205Z,12.00
2023-04-13T13:21:31.296Z,11.20
2023-04-13T13:25:00.971Z,11.40
2023-04-13T13:28:31.720Z,10.80
2023-04-13T13:32:02.418Z,18.40
2023-04-13T13:35:33.708Z,16.90
2023-04-13T13:39:04.832Z,12.20
2023-04-13T13:42:48.246Z,5.60
2023-04-13T13:46:30.020Z,4.30
2023-04-13T13:50:02.007Z,6.00
2023-04-13T13:57:00.068Z,7.50
2023-04-13T14:00:34.891Z,4.90
2023-04-13T14:04:09.020Z,4.00
2023-04-13T14:33:27.892Z,5.90
2023-04-13T14:41:10.210Z,3.80
2023-04-13T15:04:08.423Z,3.70
2023-04-13T15:07:39.380Z,4.50
2023-04-13T15:11:11.796Z,3.80
2023-04-13T15:14:14.748Z,3.50
2023-04-13T15:24:06.098Z,2.70
2023-04-13T15:28:42.232Z,2.70
2023-04-13T15:32:47.803Z,3.50
2023-04-13T15:36:26.919Z,4.40
2023-04-13T15:39:53.349Z,3.00
2023-04-13T15:43:27.911Z,4.10
2023-04-13T15:47:35.784Z,5.90
2023-04-13T15:59:11.761Z,5.70
2023-04-13T16:02:46.087Z,3.60
2023-04-13T16:06:03.850Z,3.90
2023-04-13T16:10:09.129Z,6.20
2023-04-13T16:13:48.020Z,5.80
2023-04-13T16:17:29.041Z,5.50
2023-04-13T16:24:52.639Z,5.40
2023-04-13T16:47:35.336Z,14.80
2023-04-13T17:05:54.783Z,8.00
2023-04-13T17:09:25.349Z,7.10
2023-04-13T17:13:12.910Z,9.90
2023-04-13T17:16:28.903Z,15.10
2023-04-13T17:20:21.158Z,9.80
2023-04-13T17:23:50.480Z,12.30
2023-04-13T17:27:39.709Z,10.00
2023-04-13T17:31:15.722Z,7.40
2023-04-13T17:57:39.386Z,12.30
2023-04-13T18:01:29.178Z,22.50
2023-04-13T18:05:22.632Z,12.70
2023-04-13T18:32:38.252Z,13.80
2023-04-13T18:52:09.905Z,14.90
2023-04-13T18:55:28.539Z,13.20
2023-04-13T18:59:30.744Z,13.90
2023-04-13T19:03:13.453Z,14.70
2023-04-13T19:07:09.004Z,12.40
2023-04-13T19:10:39.965Z,10.90
2023-04-13T19:18:36.065Z,22.20
2023-04-13T19:26:00.487Z,15.60
2023-04-13T19:29:33.885Z,13.10
2023-04-13T19:33:18.252Z,12.90
2023-04-13T19:36:57.768Z,11.00
2023-04-13T19:40:31.440Z,9.20
2023-04-13T20:33:25.542Z,18.20
2023-04-13T20:36:59.914Z,12.30
2023-04-13T20:40:53.432Z,14.40
2023-04-13T20:44:25.986Z,16.10
2023-04-13T20:55:43.146Z,14.70
2023-04-13T20:59:23.829Z,14.80
2023-04-13T21:03:06.157Z,14.70
2023-04-13T21:14:22.266Z,11.00
2023-04-13T21:17:59.425Z,12.60
2023-04-13T21:21:40.131Z,12.20
2023-04-13T21:45:07.719Z,10.40
2023-04-13T21:48:30.679Z,8.50
2023-04-13T22:10:44.015Z,11.00
2023-04-13T22:14:17.574Z,35.20
2023-04-13T22:17:24.513Z,23.20
2023-04-13T22:20:53.739Z,37.80
2023-04-13T22:24:34.938Z,38.40
2023-04-13T22:28:14.375Z,21.80
2023-04-13T22:31:46.541Z,15.90
2023-04-13T22:35:25.410Z,19.60
2023-04-13T22:38:57.410Z,24.50
2023-04-13T23:15:01.708Z,22.10
2023-04-13T23:18:33.746Z,18.80
2023-04-13T23:22:02.533Z,21.00
2023-04-13T23:25:31.059Z,28.10
2023-04-13T23:29:00.864Z,32.80
2023-04-13T23:32:33.247Z,31.50
2023-04-13T23:36:04.807Z,23.60
2023-04-13T23:43:33.138Z,18.10
2023-04-13T23:47:20.107Z,23.20
2023-04-13T23:51:01.320Z,21.30
2023-04-13T23:54:49.665Z,26.00
